Flight Track Log - Related Links

Times and Time Zones

All times are in EDT time to prevent confusion due to time zone crossing. See the KEN1501 flight status page for this flight to view local times or setup timezone preferences in your user account.

Time Position Orientation Groundspeed Altitude Reporting Facility
EDT Latitude Longitude Course Direction KTS MPH feet Rate Location/Type
Sun 12:44:17 PM 47.5197 -122.2933 139° Southeast 117 135 800  Level Seattle Center
Sun 12:45:05 PM 47.4967 -122.2633 139° Southeast 129 148 1,900 1,096 Climbing Seattle Center
Sun 12:46:12 PM 47.4611 -122.2372 154° Southeast 137 158 2,900 938 Climbing Seattle Center
Sun 12:47:13 PM 47.4478 -122.2903 250° West 136 157 3,900 655 Climbing Seattle Center
Sun 12:48:02 PM 47.4433 -122.3419 263° West 175 201 4,100 53 Climbing Seattle Center
Sun 12:49:06 PM 47.4506 -122.4167 278° West 175 201 4,000 -48 Descending Seattle Center
Sun 12:50:07 PM 47.4789 -122.4744 306° West 173 199 4,000 48 Level Seattle Center
Sun 12:51:11 PM 47.5167 -122.5278 316° Northwest 173 199 4,100  Climbing Seattle Center
Sun 12:52:10 PM 47.5619 -122.5481 343° North 171 197 4,000 -50 Descending Seattle Center
Sun 12:53:11 PM 47.6072 -122.5692 343° North 170 196 4,000  Level Seattle Center
Sun 12:54:12 PM 47.6531 -122.5908 342° North 172 198 4,000  Level Seattle Center
Sun 12:55:14 PM 47.7022 -122.6133 343° North 172 198 4,000 51 Level Seattle Center
Sun 12:56:09 PM 47.7450 -122.6328 343° North 172 198 4,100  Climbing Seattle Center
Sun 12:57:12 PM 47.7892 -122.6542 342° North 171 197 4,000 -57 Descending Seattle Center
Sun 12:57:54 PM 47.8228 -122.6717 341° North 172 198 4,000  Level Seattle Center
Sun 12:59:01 PM 47.8686 -122.7019 336° Northwest 172 198 4,000  Level Seattle Center
Sun 12:59:56 PM 47.9056 -122.7336 330° Northwest 169 194 4,000  Level Seattle Center
Sun 01:01:22 PM 47.9653 -122.7856 330° Northwest 170 196 4,000 41 Level Seattle Center
Sun 01:02:23 PM 47.9972 -122.8331 315° West 169 194 4,100  Climbing Seattle Center
Sun 01:03:16 PM 48.0081 -122.8978 284° West 171 197 4,000 -67 Descending Seattle Center
Sun 01:03:52 PM 48.0136 -122.9378 282° West 173 199 4,000 87 Level Seattle Center
Sun 01:04:25 PM 48.0211 -122.9692 290° West 174 200 4,100 63 Climbing Seattle Center
Sun 01:05:27 PM 48.0336 -123.0369 285° West 172 198 4,100 -59 Level Seattle Center
Sun 01:06:06 PM 48.0436 -123.0903 286° West 172 198 4,000 -129 Descending Seattle Center
Sun 01:07:00 PM 48.0550 -123.1533 285° West 170 196 3,900 -220 Descending Seattle Center
Sun 01:07:55 PM 48.0664 -123.2167 285° West 176 203 3,600 -198 Descending Seattle Center
Sun 01:08:31 PM 48.0742 -123.2511 289° West 174 200 3,600  Level Seattle Center

Login

Don't have an account? Register now (free) for customized features, flight alerts, and more!